sensor_id;sensor_type;location;lat;lon;timestamp;pressure;altitude;pressure_sealevel;temperature;humidity
7532;BME280;3807;49.030;8.714;2023-10-13T00:01:23;99350.69;;;20.76;58.94
7532;BME280;3807;49.030;8.714;2023-10-13T00:03:50;99351.63;;;20.75;58.81
7532;BME280;3807;49.030;8.714;2023-10-13T00:06:17;99355.25;;;20.72;59.45
7532;BME280;3807;49.030;8.714;2023-10-13T00:08:44;99346.69;;;20.72;59.35
7532;BME280;3807;49.030;8.714;2023-10-13T00:11:15;99345.13;;;20.69;58.97
7532;BME280;3807;49.030;8.714;2023-10-13T00:13:41;99339.25;;;20.67;58.98
7532;BME280;3807;49.030;8.714;2023-10-13T00:16:20;99342.91;;;20.64;59.40
7532;BME280;3807;49.030;8.714;2023-10-13T00:18:52;99343.13;;;20.61;59.58
7532;BME280;3807;49.030;8.714;2023-10-13T00:21:23;99338.06;;;20.60;59.27
7532;BME280;3807;49.030;8.714;2023-10-13T00:23:58;99341.81;;;20.56;59.65
7532;BME280;3807;49.030;8.714;2023-10-13T00:26:27;99342.75;;;20.55;59.46
7532;BME280;3807;49.030;8.714;2023-10-13T00:28:54;99330.03;;;20.52;59.36
7532;BME280;3807;49.030;8.714;2023-10-13T00:31:39;99334.69;;;20.46;59.86
7532;BME280;3807;49.030;8.714;2023-10-13T00:34:09;99326.34;;;20.43;60.20
7532;BME280;3807;49.030;8.714;2023-10-13T00:36:45;99319.66;;;20.40;59.72
7532;BME280;3807;49.030;8.714;2023-10-13T00:39:15;99325.03;;;20.37;60.04
7532;BME280;3807;49.030;8.714;2023-10-13T00:41:43;99329.50;;;20.35;60.06
7532;BME280;3807;49.030;8.714;2023-10-13T00:44:22;99329.63;;;20.34;60.32
7532;BME280;3807;49.030;8.714;2023-10-13T00:47:03;99331.59;;;20.30;60.21
7532;BME280;3807;49.030;8.714;2023-10-13T00:49:33;99335.34;;;20.26;60.68
7532;BME280;3807;49.030;8.714;2023-10-13T00:52:01;99336.41;;;20.23;60.38
7532;BME280;3807;49.030;8.714;2023-10-13T00:54:26;99327.22;;;20.19;60.52
7532;BME280;3807;49.030;8.714;2023-10-13T00:56:53;99332.41;;;20.19;60.65
7532;BME280;3807;49.030;8.714;2023-10-13T00:59:30;99330.97;;;20.15;60.45
7532;BME280;3807;49.030;8.714;2023-10-13T01:01:59;99335.41;;;20.13;60.72
7532;BME280;3807;49.030;8.714;2023-10-13T01:04:45;99326.94;;;20.11;60.71
7532;BME280;3807;49.030;8.714;2023-10-13T01:07:12;99321.16;;;20.08;60.61
7532;BME280;3807;49.030;8.714;2023-10-13T01:09:41;99325.63;;;20.06;60.64
7532;BME280;3807;49.030;8.714;2023-10-13T01:12:07;99326.81;;;20.02;60.97
7532;BME280;3807;49.030;8.714;2023-10-13T01:14:34;99317.28;;;20.02;61.18
7532;BME280;3807;49.030;8.714;2023-10-13T01:17:01;99322.66;;;19.99;60.99
7532;BME280;3807;49.030;8.714;2023-10-13T01:19:27;99321.25;;;19.95;61.18
7532;BME280;3807;49.030;8.714;2023-10-13T01:21:54;99318.53;;;19.96;60.70
7532;BME280;3807;49.030;8.714;2023-10-13T01:24:27;99319.69;;;19.92;61.23
7532;BME280;3807;49.030;8.714;2023-10-13T01:26:56;99306.06;;;19.90;61.25
7532;BME280;3807;49.030;8.714;2023-10-13T01:29:22;99305.34;;;19.88;61.29
7532;BME280;3807;49.030;8.714;2023-10-13T01:31:54;99298.50;;;19.87;61.07
7532;BME280;3807;49.030;8.714;2023-10-13T01:34:20;99294.41;;;19.85;61.42
7532;BME280;3807;49.030;8.714;2023-10-13T01:36:50;99296.19;;;19.84;61.57
7532;BME280;3807;49.030;8.714;2023-10-13T01:39:19;99292.88;;;19.82;61.21
7532;BME280;3807;49.030;8.714;2023-10-13T01:41:46;99286.28;;;19.78;61.84
7532;BME280;3807;49.030;8.714;2023-10-13T01:44:11;99294.84;;;19.79;61.51
7532;BME280;3807;49.030;8.714;2023-10-13T01:46:38;99288.25;;;19.74;61.74
7532;BME280;3807;49.030;8.714;2023-10-13T01:49:03;99286.72;;;19.72;61.65
7532;BME280;3807;49.030;8.714;2023-10-13T01:51:28;99292.81;;;19.71;61.81
7532;BME280;3807;49.030;8.714;2023-10-13T01:53:54;99292.00;;;19.70;61.55
7532;BME280;3807;49.030;8.714;2023-10-13T01:56:23;99287.13;;;19.66;61.73
7532;BME280;3807;49.030;8.714;2023-10-13T01:58:49;99286.44;;;19.64;61.73
7532;BME280;3807;49.030;8.714;2023-10-13T02:01:14;99281.28;;;19.64;61.81
7532;BME280;3807;49.030;8.714;2023-10-13T02:03:52;99268.53;;;19.61;61.56
7532;BME280;3807;49.030;8.714;2023-10-13T02:06:27;99261.94;;;19.57;61.81
7532;BME280;3807;49.030;8.714;2023-10-13T02:09:01;99252.66;;;19.54;62.04
7532;BME280;3807;49.030;8.714;2023-10-13T02:11:53;99254.41;;;19.54;61.92
7532;BME280;3807;49.030;8.714;2023-10-13T02:14:20;99256.28;;;19.51;62.12
7532;BME280;3807;49.030;8.714;2023-10-13T02:16:48;99269.31;;;19.50;62.17
7532;BME280;3807;49.030;8.714;2023-10-13T02:19:16;99261.88;;;19.45;62.21
7532;BME280;3807;49.030;8.714;2023-10-13T02:21:44;99257.78;;;19.43;62.50
7532;BME280;3807;49.030;8.714;2023-10-13T02:24:10;99250.94;;;19.42;61.90
7532;BME280;3807;49.030;8.714;2023-10-13T02:26:43;99246.84;;;19.39;62.39
7532;BME280;3807;49.030;8.714;2023-10-13T02:29:09;99252.09;;;19.38;62.14
7532;BME280;3807;49.030;8.714;2023-10-13T02:31:42;99257.25;;;19.38;62.26
7532;BME280;3807;49.030;8.714;2023-10-13T02:34:08;99253.25;;;19.34;62.64
7532;BME280;3807;49.030;8.714;2023-10-13T02:36:34;99244.56;;;19.35;62.45
7532;BME280;3807;49.030;8.714;2023-10-13T02:39:04;99237.16;;;19.30;62.28
7532;BME280;3807;49.030;8.714;2023-10-13T02:41:33;99239.94;;;19.27;62.48
7532;BME280;3807;49.030;8.714;2023-10-13T02:44:03;99240.06;;;19.25;62.56
7532;BME280;3807;49.030;8.714;2023-10-13T02:46:31;99241.09;;;19.23;62.74
7532;BME280;3807;49.030;8.714;2023-10-13T02:49:00;99238.63;;;19.21;62.09
7532;BME280;3807;49.030;8.714;2023-10-13T02:51:27;99239.53;;;19.20;62.73
7532;BME280;3807;49.030;8.714;2023-10-13T02:54:03;99230.28;;;19.18;63.00
7532;BME280;3807;49.030;8.714;2023-10-13T02:56:34;99236.47;;;19.15;62.40
7532;BME280;3807;49.030;8.714;2023-10-13T02:59:00;99226.25;;;19.14;62.93
7532;BME280;3807;49.030;8.714;2023-10-13T03:01:31;99228.00;;;19.13;62.54
7532;BME280;3807;49.030;8.714;2023-10-13T03:04:00;99229.88;;;19.11;62.66
7532;BME280;3807;49.030;8.714;2023-10-13T03:06:26;99217.19;;;19.08;62.69
7532;BME280;3807;49.030;8.714;2023-10-13T03:09:08;99226.69;;;19.08;62.72
7532;BME280;3807;49.030;8.714;2023-10-13T03:11:44;99227.72;;;19.05;62.81
7532;BME280;3807;49.030;8.714;2023-10-13T03:14:22;99221.84;;;19.03;62.70
7532;BME280;3807;49.030;8.714;2023-10-13T03:17:07;99222.97;;;18.99;62.65
7532;BME280;3807;49.030;8.714;2023-10-13T03:19:42;99221.22;;;18.99;62.82
7532;BME280;3807;49.030;8.714;2023-10-13T03:22:11;99217.00;;;18.98;62.56
7532;BME280;3807;49.030;8.714;2023-10-13T03:24:37;99218.16;;;18.94;62.63
7532;BME280;3807;49.030;8.714;2023-10-13T03:27:14;99224.13;;;18.95;62.91
7532;BME280;3807;49.030;8.714;2023-10-13T03:29:44;99214.75;;;18.94;62.43
7532;BME280;3807;49.030;8.714;2023-10-13T03:32:11;99212.38;;;18.91;63.11
7532;BME280;3807;49.030;8.714;2023-10-13T03:34:38;99215.88;;;18.90;62.95
7532;BME280;3807;49.030;8.714;2023-10-13T03:37:11;99217.03;;;18.86;63.09
7532;BME280;3807;49.030;8.714;2023-10-13T03:39:43;99213.53;;;18.87;62.56
7532;BME280;3807;49.030;8.714;2023-10-13T03:42:10;99217.22;;;18.83;63.18
7532;BME280;3807;49.030;8.714;2023-10-13T03:44:44;99213.13;;;18.80;62.97
7532;BME280;3807;49.030;8.714;2023-10-13T03:47:11;99211.44;;;18.79;62.72
7532;BME280;3807;49.030;8.714;2023-10-13T03:49:44;99216.84;;;18.76;62.72
7532;BME280;3807;49.030;8.714;2023-10-13T03:52:09;99212.59;;;18.75;62.91
7532;BME280;3807;49.030;8.714;2023-10-13T03:54:39;99207.66;;;18.72;62.64
7532;BME280;3807;49.030;8.714;2023-10-13T03:57:06;99207.81;;;18.69;63.21
7532;BME280;3807;49.030;8.714;2023-10-13T03:59:37;99204.34;;;18.70;63.34
7532;BME280;3807;49.030;8.714;2023-10-13T04:02:03;99208.06;;;18.66;63.19
7532;BME280;3807;49.030;8.714;2023-10-13T04:04:37;99203.81;;;18.65;62.87
7532;BME280;3807;49.030;8.714;2023-10-13T04:07:09;99197.84;;;18.64;63.17
7532;BME280;3807;49.030;8.714;2023-10-13T04:09:35;99204.88;;;18.62;63.27
7532;BME280;3807;49.030;8.714;2023-10-13T04:12:13;99202.50;;;18.59;62.67
7532;BME280;3807;49.030;8.714;2023-10-13T04:14:43;99196.53;;;18.59;62.92
7532;BME280;3807;49.030;8.714;2023-10-13T04:17:38;99192.47;;;18.54;63.28
7532;BME280;3807;49.030;8.714;2023-10-13T04:20:09;99190.75;;;18.55;63.19
7532;BME280;3807;49.030;8.714;2023-10-13T04:22:35;99185.78;;;18.52;63.29
7532;BME280;3807;49.030;8.714;2023-10-13T04:25:13;99183.22;;;18.52;63.15
7532;BME280;3807;49.030;8.714;2023-10-13T04:27:57;99176.72;;;18.46;62.91
7532;BME280;3807;49.030;8.714;2023-10-13T04:30:48;99180.22;;;18.45;63.45
7532;BME280;3807;49.030;8.714;2023-10-13T04:33:19;99174.66;;;18.39;63.22
7532;BME280;3807;49.030;8.714;2023-10-13T04:36:06;99170.44;;;18.38;62.94
7532;BME280;3807;49.030;8.714;2023-10-13T04:38:52;99172.16;;;18.37;63.40
7532;BME280;3807;49.030;8.714;2023-10-13T04:41:24;99167.44;;;18.31;63.54
7532;BME280;3807;49.030;8.714;2023-10-13T04:43:50;99169.28;;;18.29;63.27
7532;BME280;3807;49.030;8.714;2023-10-13T04:46:25;99169.63;;;18.24;63.36
7532;BME280;3807;49.030;8.714;2023-10-13T04:49:01;99161.97;;;18.23;63.51
7532;BME280;3807;49.030;8.714;2023-10-13T04:51:35;99163.41;;;18.27;63.14
7532;BME280;3807;49.030;8.714;2023-10-13T04:54:19;99159.91;;;18.28;63.14
7532;BME280;3807;49.030;8.714;2023-10-13T04:56:51;99153.41;;;18.22;63.02
7532;BME280;3807;49.030;8.714;2023-10-13T04:59:39;99149.91;;;18.23;63.19
7532;BME280;3807;49.030;8.714;2023-10-13T05:02:23;99150.84;;;18.22;63.21
7532;BME280;3807;49.030;8.714;2023-10-13T05:05:03;99151.88;;;18.20;63.32
7532;BME280;3807;49.030;8.714;2023-10-13T05:07:29;99153.13;;;18.14;62.90
7532;BME280;3807;49.030;8.714;2023-10-13T05:10:12;99152.28;;;18.14;63.14
7532;BME280;3807;49.030;8.714;2023-10-13T05:12:56;99147.53;;;18.07;63.52
7532;BME280;3807;49.030;8.714;2023-10-13T05:15:47;99148.16;;;18.11;63.46
7532;BME280;3807;49.030;8.714;2023-10-13T05:18:32;99149.00;;;18.12;63.38
7532;BME280;3807;49.030;8.714;2023-10-13T05:21:17;99147.34;;;18.11;63.27
7532;BME280;3807;49.030;8.714;2023-10-13T05:24:00;99145.47;;;18.13;63.00
7532;BME280;3807;49.030;8.714;2023-10-13T05:26:44;99144.78;;;18.11;63.08
7532;BME280;3807;49.030;8.714;2023-10-13T05:29:28;99144.84;;;18.09;62.87
7532;BME280;3807;49.030;8.714;2023-10-13T05:32:12;99133.72;;;18.08;62.88
7532;BME280;3807;49.030;8.714;2023-10-13T05:34:56;99141.56;;;18.07;62.70
7532;BME280;3807;49.030;8.714;2023-10-13T05:37:40;99149.38;;;18.05;63.06
7532;BME280;3807;49.030;8.714;2023-10-13T05:40:24;99142.59;;;18.04;62.65
7532;BME280;3807;49.030;8.714;2023-10-13T05:43:08;99150.84;;;17.97;63.01
7532;BME280;3807;49.030;8.714;2023-10-13T05:45:52;99148.28;;;17.97;63.25
7532;BME280;3807;49.030;8.714;2023-10-13T05:48:36;99150.94;;;17.95;63.19
7532;BME280;3807;49.030;8.714;2023-10-13T05:51:20;99144.88;;;17.96;62.82
7532;BME280;3807;49.030;8.714;2023-10-13T05:53:57;99153.50;;;17.95;63.29
7532;BME280;3807;49.030;8.714;2023-10-13T05:56:59;99150.09;;;17.95;62.84
7532;BME280;3807;49.030;8.714;2023-10-13T05:59:42;99146.00;;;17.92;62.72
7532;BME280;3807;49.030;8.714;2023-10-13T06:02:26;99151.84;;;17.81;62.96
7532;BME280;3807;49.030;8.714;2023-10-13T06:05:11;99141.88;;;17.90;63.01
7532;BME280;3807;49.030;8.714;2023-10-13T06:07:57;99144.44;;;17.90;62.84
7532;BME280;3807;49.030;8.714;2023-10-13T06:10:42;99154.66;;;17.91;62.51
7532;BME280;3807;49.030;8.714;2023-10-13T06:13:26;99148.78;;;17.89;63.01
7532;BME280;3807;49.030;8.714;2023-10-13T06:16:16;99145.66;;;17.84;62.85
7532;BME280;3807;49.030;8.714;2023-10-13T06:19:00;99149.59;;;17.90;62.74
7532;BME280;3807;49.030;8.714;2023-10-13T06:21:55;99145.66;;;17.84;62.57
7532;BME280;3807;49.030;8.714;2023-10-13T06:24:49;99147.53;;;17.82;62.77
7532;BME280;3807;49.030;8.714;2023-10-13T06:27:33;99141.13;;;17.88;62.54
7532;BME280;3807;49.030;8.714;2023-10-13T06:30:17;99152.59;;;17.96;62.51
7532;BME280;3807;49.030;8.714;2023-10-13T06:32:43;99137.53;;;17.90;62.28
7532;BME280;3807;49.030;8.714;2023-10-13T06:35:08;99146.50;;;17.97;62.50
7532;BME280;3807;49.030;8.714;2023-10-13T06:37:34;99135.38;;;17.84;62.97
7532;BME280;3807;49.030;8.714;2023-10-13T06:40:08;99133.22;;;17.91;62.24
7532;BME280;3807;49.030;8.714;2023-10-13T06:42:48;99137.22;;;17.95;62.16
7532;BME280;3807;49.030;8.714;2023-10-13T06:45:13;99140.00;;;17.92;62.20
7532;BME280;3807;49.030;8.714;2023-10-13T06:47:42;99147.72;;;17.92;62.24
7532;BME280;3807;49.030;8.714;2023-10-13T06:50:14;99141.75;;;17.91;62.19
7532;BME280;3807;49.030;8.714;2023-10-13T06:52:50;99151.38;;;17.89;62.23
7532;BME280;3807;49.030;8.714;2023-10-13T06:55:16;99142.78;;;17.89;62.20
7532;BME280;3807;49.030;8.714;2023-10-13T06:57:52;99137.22;;;17.95;62.22
7532;BME280;3807;49.030;8.714;2023-10-13T07:00:18;99140.63;;;17.82;62.69
7532;BME280;3807;49.030;8.714;2023-10-13T07:02:55;99141.34;;;17.84;62.06
7532;BME280;3807;49.030;8.714;2023-10-13T07:05:36;99143.22;;;17.82;62.24
7532;BME280;3807;49.030;8.714;2023-10-13T07:08:07;99139.72;;;17.96;61.75
7532;BME280;3807;49.030;8.714;2023-10-13T07:10:33;99138.69;;;17.86;62.19
7532;BME280;3807;49.030;8.714;2023-10-13T07:13:13;99139.31;;;17.90;61.49
7532;BME280;3807;49.030;8.714;2023-10-13T07:15:39;99132.38;;;17.90;61.70
7532;BME280;3807;49.030;8.714;2023-10-13T07:18:13;99137.13;;;17.83;62.13
7532;BME280;3807;49.030;8.714;2023-10-13T07:20:41;99137.00;;;17.85;62.13
7532;BME280;3807;49.030;8.714;2023-10-13T07:23:11;99137.44;;;17.79;62.26
7532;BME280;3807;49.030;8.714;2023-10-13T07:25:43;99138.47;;;17.76;62.34
7532;BME280;3807;49.030;8.714;2023-10-13T07:28:09;99138.47;;;17.89;61.98
7532;BME280;3807;49.030;8.714;2023-10-13T07:30:36;99136.72;;;17.90;61.85
7532;BME280;3807;49.030;8.714;2023-10-13T07:33:07;99140.31;;;17.87;61.85
7532;BME280;3807;49.030;8.714;2023-10-13T07:35:38;99139.81;;;17.82;62.33
7532;BME280;3807;49.030;8.714;2023-10-13T07:38:03;99134.75;;;17.80;61.92
7532;BME280;3807;49.030;8.714;2023-10-13T07:40:33;99131.16;;;17.83;61.88
7532;BME280;3807;49.030;8.714;2023-10-13T07:42:58;99132.28;;;17.79;62.26
7532;BME280;3807;49.030;8.714;2023-10-13T07:45:29;99130.63;;;17.91;61.48
7532;BME280;3807;49.030;8.714;2023-10-13T07:50:34;99124.44;;;17.80;61.76
7532;BME280;3807;49.030;8.714;2023-10-13T07:52:59;99122.28;;;17.87;61.71
7532;BME280;3807;49.030;8.714;2023-10-13T07:55:32;99124.66;;;17.90;61.90
7532;BME280;3807;49.030;8.714;2023-10-13T07:57:59;99124.13;;;17.85;61.91
7532;BME280;3807;49.030;8.714;2023-10-13T08:00:25;99130.91;;;17.73;62.47
7532;BME280;3807;49.030;8.714;2023-10-13T08:03:00;99124.09;;;17.72;62.46
7532;BME280;3807;49.030;8.714;2023-10-13T08:05:34;99120.44;;;17.76;62.11
7532;BME280;3807;49.030;8.714;2023-10-13T08:08:18;99121.09;;;17.66;62.73
7532;BME280;3807;49.030;8.714;2023-10-13T08:10:44;99124.38;;;17.68;62.47
7532;BME280;3807;49.030;8.714;2023-10-13T08:13:11;99125.03;;;17.71;62.39
7532;BME280;3807;49.030;8.714;2023-10-13T08:15:41;99116.81;;;17.79;62.50
7532;BME280;3807;49.030;8.714;2023-10-13T08:18:15;99114.13;;;17.80;62.21
7532;BME280;3807;49.030;8.714;2023-10-13T08:21:03;99111.56;;;17.80;61.89
7532;BME280;3807;49.030;8.714;2023-10-13T08:23:31;99120.84;;;17.83;62.31
7532;BME280;3807;49.030;8.714;2023-10-13T08:26:24;99114.97;;;17.81;62.22
7532;BME280;3807;49.030;8.714;2023-10-13T08:29:03;99116.50;;;17.83;62.06
7532;BME280;3807;49.030;8.714;2023-10-13T08:31:47;99114.75;;;17.84;62.12
7532;BME280;3807;49.030;8.714;2023-10-13T08:34:31;99110.53;;;17.83;62.07
7532;BME280;3807;49.030;8.714;2023-10-13T08:37:10;99104.25;;;17.87;62.27
7532;BME280;3807;49.030;8.714;2023-10-13T08:39:45;99106.72;;;17.89;62.17
7532;BME280;3807;49.030;8.714;2023-10-13T08:42:37;99099.91;;;17.88;62.02
7532;BME280;3807;49.030;8.714;2023-10-13T08:45:08;99100.53;;;17.91;61.99
7532;BME280;3807;49.030;8.714;2023-10-13T08:47:50;99097.06;;;17.92;62.36
7532;BME280;3807;49.030;8.714;2023-10-13T08:50:35;99099.41;;;17.95;62.23
7532;BME280;3807;49.030;8.714;2023-10-13T08:53:25;99093.34;;;17.96;62.28
7532;BME280;3807;49.030;8.714;2023-10-13T08:56:01;99095.19;;;18.07;61.58
7532;BME280;3807;49.030;8.714;2023-10-13T08:58:27;99102.59;;;18.12;62.05
7532;BME280;3807;49.030;8.714;2023-10-13T09:01:12;99091.16;;;18.16;62.07
7532;BME280;3807;49.030;8.714;2023-10-13T09:03:40;99088.78;;;18.25;61.73
7532;BME280;3807;49.030;8.714;2023-10-13T09:06:13;99088.88;;;18.24;61.89
7532;BME280;3807;49.030;8.714;2023-10-13T09:08:40;99087.63;;;18.29;61.39
7532;BME280;3807;49.030;8.714;2023-10-13T09:11:32;99092.78;;;18.29;61.71
7532;BME280;3807;49.030;8.714;2023-10-13T09:14:02;99085.66;;;18.33;61.59
7532;BME280;3807;49.030;8.714;2023-10-13T09:16:29;99087.09;;;18.37;61.37
7532;BME280;3807;49.030;8.714;2023-10-13T09:19:06;99077.47;;;18.52;60.41
7532;BME280;3807;49.030;8.714;2023-10-13T09:21:38;99078.97;;;18.67;61.22
7532;BME280;3807;49.030;8.714;2023-10-13T09:24:13;99077.97;;;18.57;60.31
7532;BME280;3807;49.030;8.714;2023-10-13T09:26:52;99066.97;;;18.79;60.97
7532;BME280;3807;49.030;8.714;2023-10-13T09:29:26;99070.75;;;19.10;60.30
7532;BME280;3807;49.030;8.714;2023-10-13T09:31:59;99074.47;;;19.30;59.96
7532;BME280;3807;49.030;8.714;2023-10-13T09:34:25;99067.06;;;19.25;59.61
7532;BME280;3807;49.030;8.714;2023-10-13T09:37:00;99060.91;;;19.39;59.82
7532;BME280;3807;49.030;8.714;2023-10-13T09:39:28;99061.94;;;19.37;59.66
7532;BME280;3807;49.030;8.714;2023-10-13T09:42:10;99058.78;;;19.44;59.37
7532;BME280;3807;49.030;8.714;2023-10-13T09:44:37;99066.31;;;19.59;59.21
7532;BME280;3807;49.030;8.714;2023-10-13T09:47:09;99059.06;;;19.52;59.21
7532;BME280;3807;49.030;8.714;2023-10-13T09:49:45;99056.97;;;19.69;58.42
7532;BME280;3807;49.030;8.714;2023-10-13T09:52:16;99051.13;;;19.67;58.49
7532;BME280;3807;49.030;8.714;2023-10-13T09:54:53;99051.13;;;19.78;58.28
7532;BME280;3807;49.030;8.714;2023-10-13T09:57:28;99048.66;;;19.88;58.29
7532;BME280;3807;49.030;8.714;2023-10-13T10:00:09;99039.84;;;19.90;58.45
7532;BME280;3807;49.030;8.714;2023-10-13T10:02:55;99044.53;;;19.96;58.04
7532;BME280;3807;49.030;8.714;2023-10-13T10:05:25;99035.72;;;20.10;57.38
7532;BME280;3807;49.030;8.714;2023-10-13T10:07:55;99043.00;;;20.28;56.88
7532;BME280;3807;49.030;8.714;2023-10-13T10:10:22;99038.06;;;20.25;57.88
7532;BME280;3807;49.030;8.714;2023-10-13T10:13:01;99040.28;;;20.29;57.90
7532;BME280;3807;49.030;8.714;2023-10-13T10:15:41;99042.16;;;20.38;58.07
7532;BME280;3807;49.030;8.714;2023-10-13T10:18:21;99037.19;;;20.46;57.63
7532;BME280;3807;49.030;8.714;2023-10-13T10:20:48;99039.09;;;20.56;57.54
7532;BME280;3807;49.030;8.714;2023-10-13T10:23:27;99031.19;;;20.68;56.65
7532;BME280;3807;49.030;8.714;2023-10-13T10:25:54;99035.28;;;20.71;56.60
7532;BME280;3807;49.030;8.714;2023-10-13T10:28:41;99029.69;;;20.87;56.21
7532;BME280;3807;49.030;8.714;2023-10-13T10:31:08;99026.25;;;20.98;56.37
7532;BME280;3807;49.030;8.714;2023-10-13T10:33:40;99022.84;;;21.18;55.45
7532;BME280;3807;49.030;8.714;2023-10-13T10:36:06;99020.19;;;21.29;56.18
7532;BME280;3807;49.030;8.714;2023-10-13T10:38:37;99024.16;;;21.33;55.42
7532;BME280;3807;49.030;8.714;2023-10-13T10:41:05;99020.72;;;21.44;56.09
7532;BME280;3807;49.030;8.714;2023-10-13T10:46:13;99004.63;;;21.71;55.51
7532;BME280;3807;49.030;8.714;2023-10-13T10:48:39;99002.22;;;21.79;54.47
7532;BME280;3807;49.030;8.714;2023-10-13T10:51:09;98994.34;;;21.91;54.32
7532;BME280;3807;49.030;8.714;2023-10-13T10:53:40;98985.50;;;22.03;54.10
7532;BME280;3807;49.030;8.714;2023-10-13T10:56:13;98973.78;;;22.08;54.61
7532;BME280;3807;49.030;8.714;2023-10-13T10:58:49;98973.16;;;22.16;52.17
7532;BME280;3807;49.030;8.714;2023-10-13T11:01:22;98982.47;;;22.48;53.50
7532;BME280;3807;49.030;8.714;2023-10-13T11:03:59;98974.97;;;22.64;51.67
7532;BME280;3807;49.030;8.714;2023-10-13T11:06:36;98971.81;;;22.90;52.16
7532;BME280;3807;49.030;8.714;2023-10-13T11:09:11;98978.78;;;23.18;49.22
7532;BME280;3807;49.030;8.714;2023-10-13T11:11:55;98978.22;;;23.24;49.35
7532;BME280;3807;49.030;8.714;2023-10-13T11:14:27;98966.13;;;23.43;48.64
7532;BME280;3807;49.030;8.714;2023-10-13T11:16:54;98966.34;;;23.59;47.84
7532;BME280;3807;49.030;8.714;2023-10-13T11:19:21;98966.59;;;23.66;48.12
7532;BME280;3807;49.030;8.714;2023-10-13T11:22:10;98960.75;;;23.91;46.43
7532;BME280;3807;49.030;8.714;2023-10-13T11:24:41;98956.06;;;23.95;46.68
7532;BME280;3807;49.030;8.714;2023-10-13T11:27:14;98951.84;;;23.94;46.21
7532;BME280;3807;49.030;8.714;2023-10-13T11:29:43;98947.63;;;23.93;45.30
7532;BME280;3807;49.030;8.714;2023-10-13T11:32:17;98945.34;;;24.25;45.25
7532;BME280;3807;49.030;8.714;2023-10-13T11:34:45;98942.75;;;24.25;45.06
7532;BME280;3807;49.030;8.714;2023-10-13T11:37:10;98936.50;;;24.36;44.85
7532;BME280;3807;49.030;8.714;2023-10-13T11:40:03;98931.75;;;24.67;44.05
7532;BME280;3807;49.030;8.714;2023-10-13T11:42:35;98930.03;;;24.76;43.25
7532;BME280;3807;49.030;8.714;2023-10-13T11:45:01;98932.22;;;24.89;42.29
7532;BME280;3807;49.030;8.714;2023-10-13T11:47:47;98922.22;;;25.02;42.79
7532;BME280;3807;49.030;8.714;2023-10-13T11:50:25;98923.66;;;25.14;41.97
7532;BME280;3807;49.030;8.714;2023-10-13T11:53:00;98923.06;;;25.29;41.29
7532;BME280;3807;49.030;8.714;2023-10-13T11:55:25;98920.97;;;25.32;41.40
7532;BME280;3807;49.030;8.714;2023-10-13T11:57:51;98908.50;;;25.52;40.93
7532;BME280;3807;49.030;8.714;2023-10-13T12:00:17;98907.88;;;25.58;41.75
7532;BME280;3807;49.030;8.714;2023-10-13T12:03:11;98898.44;;;25.57;39.84
7532;BME280;3807;49.030;8.714;2023-10-13T12:05:55;98888.88;;;25.74;41.07
7532;BME280;3807;49.030;8.714;2023-10-13T12:08:39;98879.69;;;25.62;40.60
7532;BME280;3807;49.030;8.714;2023-10-13T12:11:15;98881.63;;;26.02;40.07
7532;BME280;3807;49.030;8.714;2023-10-13T12:13:55;98877.06;;;26.21;39.62
7532;BME280;3807;49.030;8.714;2023-10-13T12:16:21;98878.38;;;26.33;40.00
7532;BME280;3807;49.030;8.714;2023-10-13T12:18:47;98865.97;;;26.35;39.39
7532;BME280;3807;49.030;8.714;2023-10-13T12:21:21;98866.63;;;26.53;39.33
7532;BME280;3807;49.030;8.714;2023-10-13T12:23:47;98872.53;;;26.55;38.05
7532;BME280;3807;49.030;8.714;2023-10-13T12:26:12;98862.53;;;26.67;38.63
7532;BME280;3807;49.030;8.714;2023-10-13T12:29:00;98856.50;;;26.75;38.42
7532;BME280;3807;49.030;8.714;2023-10-13T12:31:32;98849.31;;;26.77;38.54
7532;BME280;3807;49.030;8.714;2023-10-13T12:33:58;98856.13;;;26.94;37.68
7532;BME280;3807;49.030;8.714;2023-10-13T12:36:32;98847.59;;;27.17;40.08
7532;BME280;3807;49.030;8.714;2023-10-13T12:39:06;98855.44;;;27.17;37.35
7532;BME280;3807;49.030;8.714;2023-10-13T12:41:32;98845.38;;;27.37;38.45
7532;BME280;3807;49.030;8.714;2023-10-13T12:44:16;98848.44;;;27.48;36.07
7532;BME280;3807;49.030;8.714;2023-10-13T12:47:00;98841.81;;;27.29;36.32
7532;BME280;3807;49.030;8.714;2023-10-13T12:49:44;98845.84;;;27.48;35.71
7532;BME280;3807;49.030;8.714;2023-10-13T12:52:13;98831.03;;;27.33;36.34
7532;BME280;3807;49.030;8.714;2023-10-13T12:54:48;98837.66;;;27.43;35.22
7532;BME280;3807;49.030;8.714;2023-10-13T12:57:25;98832.28;;;27.68;35.13
7532;BME280;3807;49.030;8.714;2023-10-13T12:59:51;98832.22;;;27.84;34.42
7532;BME280;3807;49.030;8.714;2023-10-13T13:02:23;98826.22;;;27.75;35.10
7532;BME280;3807;49.030;8.714;2023-10-13T13:04:53;98824.38;;;27.84;34.46
7532;BME280;3807;49.030;8.714;2023-10-13T13:07:34;98822.34;;;27.63;34.09
7532;BME280;3807;49.030;8.714;2023-10-13T13:10:10;98819.72;;;27.94;33.77
7532;BME280;3807;49.030;8.714;2023-10-13T13:12:36;98817.28;;;28.16;33.47
7532;BME280;3807;49.030;8.714;2023-10-13T13:15:02;98813.91;;;28.07;33.77
7532;BME280;3807;49.030;8.714;2023-10-13T13:17:34;98808.72;;;28.22;32.95
7532;BME280;3807;49.030;8.714;2023-10-13T13:19:59;98807.00;;;28.29;33.19
7532;BME280;3807;49.030;8.714;2023-10-13T13:22:24;98805.44;;;28.20;33.56
7532;BME280;3807;49.030;8.714;2023-10-13T13:24:50;98797.53;;;27.90;33.33
7532;BME280;3807;49.030;8.714;2023-10-13T13:27:16;98787.41;;;27.87;32.86
7532;BME280;3807;49.030;8.714;2023-10-13T13:29:47;98790.47;;;27.91;33.60
7532;BME280;3807;49.030;8.714;2023-10-13T13:32:13;98789.06;;;28.03;33.24
7532;BME280;3807;49.030;8.714;2023-10-13T13:34:49;98792.50;;;28.04;32.52
7532;BME280;3807;49.030;8.714;2023-10-13T13:37:30;98782.41;;;28.38;32.37
7532;BME280;3807;49.030;8.714;2023-10-13T13:39:56;98779.25;;;28.20;33.42
7532;BME280;3807;49.030;8.714;2023-10-13T13:42:21;98772.84;;;28.08;31.92
7532;BME280;3807;49.030;8.714;2023-10-13T13:44:47;98766.06;;;28.13;32.26
7532;BME280;3807;49.030;8.714;2023-10-13T13:47:13;98758.59;;;28.25;32.01
7532;BME280;3807;49.030;8.714;2023-10-13T13:49:42;98757.34;;;28.21;31.50
7532;BME280;3807;49.030;8.714;2023-10-13T13:52:17;98750.75;;;28.25;32.09
7532;BME280;3807;49.030;8.714;2023-10-13T13:54:47;98749.03;;;28.32;32.99
7532;BME280;3807;49.030;8.714;2023-10-13T13:57:12;98749.31;;;28.37;31.97
7532;BME280;3807;49.030;8.714;2023-10-13T13:59:39;98744.47;;;28.49;32.22
7532;BME280;3807;49.030;8.714;2023-10-13T14:02:04;98744.25;;;28.36;32.05